Time;durP1;ratioP1;P1;durP2;ratioP2;P2;SDS_P1;SDS_P2;PMS_P1;PMS_P2;Temp;Humidity;BMP_temperature;BMP_pressure;BME280_temperature;BME280_humidity;BME280_pressure;Samples;Min_cycle;Max_cycle;Signal;HPM_P1;HPM_P2
2023/05/23 07:30:43;;;;;;;;;;;;;;;;;;5538646;22;19944;-87
2023/05/23 07:33:08;;;;;;;;;;;;;;;;;;4997919;28;20261;-86
2023/05/23 07:35:33;;;;;;;;;;;;;;;;;;5015460;28;20267;-86
2023/05/23 07:37:58;;;;;;;;;;;;;;;;;;5014820;28;19921;-85
2023/05/23 07:40:24;;;;;;;;;;;;;;;;;;5015166;28;19933;-85
2023/05/23 07:42:52;;;;;;;;;;;;;;;;;;5015468;28;19920;-86
2023/05/23 07:45:17;;;;;;;;;;;;;;;;;;5014962;28;19960;-86
2023/05/23 07:47:42;;;;;;;;;;;;;;;;;;5014817;28;19957;-85
2023/05/23 07:50:08;;;;;;;;;;;;;;;;;;5014963;28;19913;-85
2023/05/23 07:52:33;;;;;;;;;;;;;;;;;;4997133;28;19964;-85
2023/05/23 07:54:59;;;;;;;;;;;;;;;;;;5014769;28;19917;-86
2023/05/23 07:57:25;;;;;;;;;;;;;;;;;;5014749;28;19961;-86
2023/05/23 07:59:51;;;;;;;;;;;;;;;;;;5014586;28;20000;-86
2023/05/23 08:02:16;;;;;;;;;;;;;;;;;;5014933;28;19913;-85
2023/05/23 08:04:42;;;;;;;9.35;8.40;;;;;;;;;;4996694;28;19959;-86
2023/05/23 08:07:08;;;;;;;9.98;8.98;;;;;;;;;;5014127;28;20116;-85
2023/05/23 08:09:34;;;;;;;10.60;8.98;;;;;;;;;;5014251;28;20041;-85
2023/05/23 08:11:59;;;;;;;11.13;8.50;;;;;;;;;;5014015;28;20022;-86
2023/05/23 08:14:25;;;;;;;;;;;;;;;;;;5014353;28;20022;-84
2023/05/23 08:16:50;;;;;;;;;;;;;;;;;;5014453;28;19913;-84
2023/05/23 08:19:16;;;;;;;;;;;;;;;;;;5014550;28;19932;-84
2023/05/23 08:21:41;;;;;;;;;;;;;;;;;;5014607;28;19914;-86
2023/05/23 08:24:07;;;;;;;;;;;;;;;;;;4997048;28;19941;-85
2023/05/23 08:26:36;;;;;;;;;;;;;;;;;;5014147;28;19917;-84
2023/05/23 08:29:01;;;;;;;;;;;;;;;;;;5014391;28;19913;-84
2023/05/23 08:31:30;;;;;;;;;;;;;;;;;;5014313;28;19971;-85
2023/05/23 08:33:56;;;;;;;;;;;;;;;;;;5014428;28;19913;-84
2023/05/23 08:36:21;;;;;;;;;;;;;;;;;;5014507;28;19936;-86
2023/05/23 08:38:48;;;;;;;;;;;;;;;;;;4996544;28;19976;-85
2023/05/23 08:41:21;;;;;;;;;;;;;;;;;;4996688;28;19917;-86
2023/05/23 08:43:46;;;;;;;;;;;;;;;;;;5014541;28;19917;-86
2023/05/23 08:46:12;;;;;;;;;;;;;;;;;;5014339;28;19913;-86
2023/05/23 08:48:37;;;;;;;;;;;;;;;;;;5013968;28;20391;-86
2023/05/23 08:51:03;;;;;;;;;;;;;;;;;;5016501;28;19917;-88
2023/05/23 08:53:30;;;;;;;;;;;;;;;;;;5000613;28;19921;-86
2023/05/23 08:55:57;;;;;;;;;;;;;;;;;;5017936;28;19913;-87
2023/05/23 08:58:27;;;;;;;;;;;;;;;;;;5017695;28;20007;-87
2023/05/23 09:00:54;;;;;;;;;;;;;;;;;;5017792;28;19913;-87
2023/05/23 09:03:20;;;;;;;;;;;;;;;;;;5000263;28;20348;-88
2023/05/23 09:05:45;;;;;;;;;;;;;;;;;;5000196;28;19945;-89
2023/05/23 09:08:12;;;;;;;;;;;;;;;;;;5000376;28;19913;-87
2023/05/23 09:10:38;;;;;;;;;;;;;;;;;;5017904;28;19937;-88
2023/05/23 09:13:04;;;;;;;;;;;;;;;;;;5000224;28;19913;-89
2023/05/23 09:15:30;;;;;;;;;;;;;;;;;;4999849;28;19928;-87
2023/05/23 09:18:00;;;;;;;;;;;;;;;;;;5017494;28;19920;-88
2023/05/23 09:20:26;;;;;;;;;;;;;;;;;;5017511;28;19909;-88
2023/05/23 09:22:53;;;;;;;;;;;;;;;;;;5017729;28;20394;-89
2023/05/23 09:25:18;;;;;;;;;;;;;;;;;;5017299;28;20359;-88
2023/05/23 09:27:44;;;;;;;;;;;;;;;;;;5000053;28;19921;-89
2023/05/23 09:30:10;;;;;;;;;;;;;;;;;;5017252;28;19924;-89
2023/05/23 09:32:35;;;;;;;;;;;;;;;;;;4999853;28;19924;-86
2023/05/23 09:35:05;;;;;;;;;;;;;;;;;;5017174;28;19913;-86
2023/05/23 09:37:38;;;;;;;;;;;;;;;;;;5017293;28;19913;-87
2023/05/23 09:40:10;;;;;;;;;;;;;;;;;;5017230;28;19917;-86
2023/05/23 09:42:40;;;;;;;;;;;;;;;;;;5017343;28;19913;-87
2023/05/23 09:45:06;;;;;;;;;;;;;;;;;;5017047;28;19920;-87
2023/05/23 09:47:31;;;;;;;;;;;;;;;;;;5017306;28;20019;-86
2023/05/23 09:49:56;;;;;;;;;;;;;;;;;;5017331;28;19959;-87
2023/05/23 09:52:21;;;;;;;;;;;;;;;;;;5016792;28;19921;-84
2023/05/23 09:54:47;;;;;;;;;;;;;;;;;;5016956;28;19914;-86
2023/05/23 09:57:13;;;;;;;;;;;;;;;;;;5016876;28;19967;-87
2023/05/23 09:59:41;;;;;;;;;;;;;;;;;;4999370;28;20279;-87
2023/05/23 10:02:10;;;;;;;;;;;;;;;;;;4999054;28;19917;-87
2023/05/23 10:04:37;;;;;;;;;;;;;;;;;;5016757;28;19967;-87
2023/05/23 10:07:13;;;;;;;;;;;;;;;;;;5016585;28;20020;-87
2023/05/23 10:09:38;;;;;;;;;;;;;;;;;;4999423;28;20431;-87
2023/05/23 10:12:23;;;;;;;;;;;;;;;;;;5016858;28;19960;-87
2023/05/23 10:14:53;;;;;;;;;;;;;;;;;;5016398;28;19913;-87
2023/05/23 10:17:27;;;;;;;;;;;;;;;;;;5016272;28;19980;-87
2023/05/23 10:19:55;;;;;;;;;;;;;;;;;;5016183;28;19913;-87
2023/05/23 10:22:22;;;;;;;;;;;;;;;;;;5016109;28;19914;-87
2023/05/23 10:24:47;;;;;;;;;;;;;;;;;;5016653;28;19913;-88
2023/05/23 10:27:13;;;;;;;;;;;;;;;;;;5016007;28;20315;-87
2023/05/23 10:29:38;;;;;;;;;;;;;;;;;;5016024;28;19996;-87
2023/05/23 10:32:04;;;;;;;;;;;;;;;;;;5016408;28;20004;-87
2023/05/23 10:34:48;;;;;;;;;;;;;;;;;;5016303;28;19919;-88
2023/05/23 10:37:23;;;;;;;;;;;;;;;;;;4998313;28;20327;-87
2023/05/23 10:40:00;;;;;;;;;;;;;;;;;;4998404;28;20076;-87
2023/05/23 10:42:47;;;;;;;;;;;;;;;;;;5016099;28;19962;-87
2023/05/23 10:45:19;;;;;;;;;;;;;;;;;;5016272;28;19956;-87
2023/05/23 10:47:48;;;;;;;;;;;;;;;;;;4998475;28;20028;-84
2023/05/23 10:50:15;;;;;;;;;;;;;;;;;;5016413;28;19924;-86
2023/05/23 10:52:41;;;;;;;;;;;;;;;;;;5016278;28;19910;-89
2023/05/23 10:55:14;;;;;;;;;;;;;;;;;;5015861;28;20325;-85
2023/05/23 10:57:42;;;;;;;;;;;;;;;;;;5015838;28;19920;-89
2023/05/23 11:00:17;;;;;;;;;;;;;;;;;;4998389;28;19936;-88
2023/05/23 11:02:53;;;;;;;;;;;;;;;;;;5009934;28;20033;-89
2023/05/23 11:05:21;;;;;;;;;;;;;;;;;;5015647;28;19932;-88
2023/05/23 11:07:46;;;;;;;;;;;;;;;;;;5015394;28;19920;-88
2023/05/23 11:10:15;;;;;;;;;;;;;;;;;;5015653;28;20008;-88
2023/05/23 11:12:41;;;;;;;;;;;;;;;;;;5015226;28;19960;-88
2023/05/23 11:15:15;;;;;;;;;;;;;;;;;;4997878;28;19917;-88
2023/05/23 11:17:49;;;;;;;;;;;;;;;;;;5015609;28;20352;-88
2023/05/23 11:20:15;;;;;;;;;;;;;;;;;;5015489;28;19960;-88
2023/05/23 11:22:51;;;;;;;;;;;;;;;;;;5015465;28;20403;-88
2023/05/23 11:25:19;;;;;;;;;;;;;;;;;;5015554;28;20008;-89
2023/05/23 11:27:45;;;;;;;;;;;;;;;;;;5015503;28;19940;-89
2023/05/23 11:30:14;;;;;;;;;;;;;;;;;;5015444;28;19917;-88
2023/05/23 11:32:40;;;;;;;;;;;;;;;;;;5016121;28;20398;-88
2023/05/23 11:35:06;;;;;;;;;;;;;;;;;;4998194;28;19913;-88
2023/05/23 11:37:32;;;;;;;;;;;;;;;;;;5015269;28;19913;-88
2023/05/23 11:39:58;;;;;;;;;;;;;;;;;;5014689;28;20383;-89
2023/05/23 11:42:23;;;;;;;;;;;;;;;;;;5014949;28;19917;-87
2023/05/23 16:27:33;;;;;;;;;;;;;;;;;;5003558;28;19917;-87
2023/05/23 16:29:59;;;;;;;;;;;;;;;;;;5026224;28;19917;-87
2023/05/23 16:32:24;;;;;;;;;;;;;;;;;;5014376;28;19913;-88
2023/05/23 16:34:50;;;;;;;;;;;;;;;;;;5026641;28;20343;-88
2023/05/23 16:37:15;;;;;;;;;;;;;;;;;;5016103;28;19932;-88
2023/05/23 16:39:40;;;;;;;;;;;;;;;;;;5016137;28;20283;-87
2023/05/23 16:42:07;;;;;;;;;;;;;;;;;;5031016;28;20367;-86
2023/05/23 16:44:33;;;;;;;;;;;;;;;;;;5033534;28;20360;-87
2023/05/23 16:46:58;;;;;;;;;;;;;;;;;;5036345;28;19936;-87
2023/05/23 16:49:23;;;;;;;;;;;;;;;;;;5033684;28;20019;-87
2023/05/23 16:51:48;;;;;;;;;;;;;;;;;;5033583;28;20372;-87
2023/05/23 16:54:14;;;;;;;;;;;;;;;;;;5015772;28;19963;-87
2023/05/23 16:56:39;;;;;;;;;;;;;;;;;;5033620;28;19999;-87
2023/05/23 16:59:05;;;;;;;;;;;;;;;;;;5014343;28;20007;-87
2023/05/23 17:01:31;;;;;;;;;;;;;;;;;;5013558;28;20360;-89
2023/05/23 17:03:56;;;;;;;;;;;;;;;;;;5013716;28;19913;-87
2023/05/23 17:06:22;;;;;;;;;;;;;;;;;;5030315;28;19913;-88
2023/05/23 17:08:47;;;;;;;;;;;;;;;;;;5033484;28;20330;-85
2023/05/23 17:11:12;;;;;;;;;;;;;;;;;;5016465;28;19917;-88
2023/05/23 17:13:37;;;;;;;;;;;;;;;;;;5037207;28;19913;-88
2023/05/23 17:16:03;;;;;;;;;;;;;;;;;;5037378;28;19920;-87
2023/05/23 17:18:28;;;;;;;;;;;;;;;;;;5003888;28;19913;-87
2023/05/23 17:20:54;;;;;;;;;;;;;;;;;;5019489;28;20280;-88
2023/05/23 17:23:19;;;;;;;;;;;;;;;;;;5037349;28;19920;-88
2023/05/23 17:25:44;;;;;;;;;;;;;;;;;;5037487;28;20022;-88
2023/05/23 17:28:10;;;;;;;;;;;;;;;;;;5019289;28;19916;-88
2023/05/23 17:30:37;;;;;;;;;;;;;;;;;;5036952;28;19960;-88
2023/05/23 17:33:02;;;;;;;;;;;;;;;;;;5036834;28;19917;-88
2023/05/23 17:35:28;;;;;;;;;;;;;;;;;;5037249;28;19913;-87
2023/05/23 17:37:56;;;;;;;;;;;;;;;;;;5038086;28;19967;-90
2023/05/23 17:40:22;;;;;;;;;;;;;;;;;;5036987;28;19920;-87
2023/05/23 17:42:47;;;;;;;;;;;;;;;;;;5036923;28;19917;-88
2023/05/23 17:45:12;;;;;;;;;;;;;;;;;;5036884;28;20001;-87
2023/05/23 17:47:38;;;;;;;;;;;;;;;;;;5037001;28;19917;-87
2023/05/23 17:50:05;;;;;;;;;;;;;;;;;;5018958;28;19913;-88
2023/05/23 17:52:30;;;;;;;;;;;;;;;;;;5036619;28;19928;-87
2023/05/23 17:54:56;;;;;;;;;;;;;;;;;;5036706;28;20031;-88
2023/05/23 17:57:22;;;;;;;;;;;;;;;;;;5036562;28;19948;-88
2023/05/23 17:59:47;;;;;;;;;;;;;;;;;;5036688;28;19917;-89
2023/05/23 18:02:12;;;;;;;;;;;;;;;;;;5019055;28;19913;-89
2023/05/23 18:04:38;;;;;;;;;;;;;;;;;;5036641;28;19913;-88
2023/05/23 18:07:04;;;;;;;;;;;;;;;;;;5036449;28;20249;-87
2023/05/23 18:09:30;;;;;;;;;;;;;;;;;;5036840;28;20264;-87
2023/05/23 18:11:56;;;;;;;;;;;;;;;;;;5018674;28;19920;-87
2023/05/23 18:14:21;;;;;;;;;;;;;;;;;;5036411;28;19916;-87
2023/05/23 18:16:46;;;;;;;;;;;;;;;;;;5018759;28;19971;-88
2023/05/23 18:19:12;;;;;;;;;;;;;;;;;;5036291;28;20356;-88
2023/05/23 18:21:37;;;;;;;;;;;;;;;;;;5018752;28;19970;-88
2023/05/23 18:24:03;;;;;;;;;;;;;;;;;;5017893;28;19920;-88
2023/05/23 18:26:28;;;;;;;;;;;;;;;;;;5036466;28;20363;-89
2023/05/23 18:28:54;;;;;;;;;;;;;;;;;;5035640;28;20294;-89
2023/05/23 18:31:20;;;;;;;;;;;;;;;;;;5035904;28;20283;-88
2023/05/23 18:33:45;;;;;;;;;;;;;;;;;;5035059;28;19920;-88
2023/05/23 18:36:10;;;;;;;;;;;;;;;;;;5035999;28;20514;-88
2023/05/23 18:38:36;;;;;;;;;;;;;;;;;;5035904;28;19948;-89
2023/05/23 18:41:01;;;;;;;;;;;;;;;;;;5037913;28;19967;-90
2023/05/23 18:43:26;;;;;;;;;;;;;;;;;;5018296;28;20291;-91
2023/05/23 18:45:52;;;;;;;;;;;;;;;;;;5018268;28;19963;-91
2023/05/23 18:48:17;;;;;;;;;;;;;;;;;;5018258;28;19932;-90
2023/05/23 18:50:42;;;;;;;;;;;;;;;;;;5017982;28;20355;-90
2023/05/23 18:53:08;;;;;;;;;;;;;;;;;;5017448;28;20423;-90
2023/05/23 18:55:33;;;;;;;;;;;;;;;;;;5018207;28;19971;-90
2023/05/23 18:57:58;;;;;;;;;;;;;;;;;;5018494;28;19909;-90
2023/05/23 19:00:24;;;;;;;;;;;;;;;;;;5018304;28;20279;-90
2023/05/23 19:02:49;;;;;;;;;;;;;;;;;;5018077;28;19913;-91
2023/05/23 19:05:14;;;;;;;;;;;;;;;;;;5036222;28;20303;-91
2023/05/23 19:07:40;;;;;;;;;;;;;;;;;;5018396;28;19912;-90
2023/05/23 19:10:05;;;;;;;;;;;;;;;;;;5035750;28;19916;-91
2023/05/23 19:12:30;;;;;;;;;;;;;;;;;;5035763;28;20344;-90
2023/05/23 19:14:57;;;;;;;;;;;;;;;;;;5035536;28;19913;-91
2023/05/23 19:17:23;;;;;;;;;;;;;;;;;;5035539;28;19909;-91
2023/05/23 19:19:48;;;;;;;;;;;;;;;;;;5017710;28;19959;-90
2023/05/23 19:22:13;;;;;;;;;;;;;;;;;;5018011;28;19913;-90
2023/05/23 19:24:40;;;;;;;;;;;;;;;;;;5035637;28;19916;-90
2023/05/23 19:27:06;;;;;;;;;;;;;;;;;;5017418;28;20257;-90
2023/05/23 19:29:31;;;;;;;;;;;;;;;;;;5017743;28;19938;-89
2023/05/23 19:31:57;;;;;;;;;;;;;;;;;;5035352;28;19916;-87
2023/05/23 19:34:22;;;;;;;;;;;;;;;;;;5034529;28;19917;-87
2023/05/23 19:36:47;;;;;;;;;;;;;;;;;;5017122;28;19964;-87
2023/05/23 19:39:13;;;;;;;;;;;;;;;;;;5017340;28;20007;-87
2023/05/23 19:41:39;;;;;;;;;;;;;;;;;;5034938;28;19913;-88
2023/05/23 19:44:05;;;;;;;;;;;;;;;;;;5017292;28;19927;-88
2023/05/23 19:46:30;;;;;;;;;;;;;;;;;;5034699;28;19913;-89
2023/05/23 19:48:58;;;;;;;;;;;;;;;;;;5035068;28;20011;-89
2023/05/23 19:51:24;;;;;;;;;;;;;;;;;;5034981;28;19913;-89
2023/05/23 19:53:50;;;;;;;;;;;;;;;;;;5034665;28;20330;-90
2023/05/23 19:56:16;;;;;;;;;;;;;;;;;;5034937;28;19913;-89
2023/05/23 19:58:42;;;;;;;;;;;;;;;;;;5017510;28;19913;-89
2023/05/23 20:01:08;;;;;;;;;;;;;;;;;;5034776;28;20370;-89
2023/05/23 20:03:34;;;;;;;;;;;;;;;;;;5034356;28;19913;-89
2023/05/23 20:05:59;;;;;;;;;;;;;;;;;;5034703;28;19913;-90
2023/05/23 20:08:25;;;;;;;;;;;;;;;;;;5016916;28;19920;-89
2023/05/23 20:10:50;;;;;;;;;;;;;;;;;;5034833;28;19924;-89
2023/05/23 20:13:15;;;;;;;;;;;;;;;;;;5034847;28;20275;-89
2023/05/23 20:15:41;;;;;;;;;;;;;;;;;;5017068;28;19966;-89
2023/05/23 20:18:06;;;;;;;;;;;;;;;;;;5016849;28;20019;-89
2023/05/23 20:20:31;;;;;;;;;;;;;;;;;;5016688;28;19913;-89
2023/05/23 20:22:57;;;;;;;;;;;;;;;;;;5016630;28;19913;-86
2023/05/23 20:25:22;;;;;;;;;;;;;;;;;;5034409;28;19913;-88
2023/05/23 20:27:47;;;;;;;;;;;;;;;;;;5016447;28;19921;-87
2023/05/23 20:30:13;;;;;;;;;;;;;;;;;;5017307;28;19917;-89
2023/05/23 20:32:38;;;;;;;;;;;;;;;;;;5038530;28;19909;-95
2023/05/23 20:35:04;;;;;;;;;;;;;;;;;;5032718;28;19920;-94
2023/05/23 20:37:29;;;;;;;;;;;;;;;;;;5020909;28;20351;-95
2023/05/23 20:39:54;;;;;;;;;;;;;;;;;;5020553;28;19920;-94
2023/05/23 20:42:19;;;;;;;;;;;;;;;;;;5021093;28;19913;-93
2023/05/23 20:44:46;;;;;;;;;;;;;;;;;;5015914;28;19917;-86
2023/05/23 20:47:12;;;;;;;;;;;;;;;;;;5016602;28;19917;-87
2023/05/23 20:49:38;;;;;;;;;;;;;;;;;;5023531;28;19913;-88
2023/05/23 20:52:04;;;;;;;;;;;;;;;;;;5038182;28;19909;-89
2023/05/23 20:54:33;;;;;;;;;;;;;;;;;;5038058;28;20414;-86
2023/05/23 20:56:58;;;;;;;;;;;;;;;;;;5037906;28;20004;-86
2023/05/23 20:59:24;;;;;;;;;;;;;;;;;;5037867;28;19959;-87
2023/05/23 21:01:51;;;;;;;;;;;;;;;;;;5037933;28;19913;-89
2023/05/23 21:04:16;;;;;;;;;;;;;;;;;;5037834;28;19909;-86
2023/05/23 21:06:41;;;;;;;;;;;;;;;;;;5032369;28;19972;-86
2023/05/23 21:09:08;;;;;;;;;;;;;;;;;;5017938;28;19913;-86
2023/05/23 21:11:34;;;;;;;;;;;;;;;;;;5017938;28;19964;-87
2023/05/23 21:13:59;;;;;;;;;;;;;;;;;;5017704;28;20414;-86
2023/05/23 21:16:25;;;;;;;;;;;;;;;;;;5017724;28;19936;-87
2023/05/23 21:18:50;;;;;;;;;;;;;;;;;;5017485;28;19922;-87
2023/05/23 21:21:15;;;;;;;;;;;;;;;;;;5017786;28;19913;-86
2023/05/23 21:23:41;;;;;;;;;;;;;;;;;;5017837;28;19913;-86
2023/05/23 21:26:06;;;;;;;;;;;;;;;;;;5017823;28;20011;-87
2023/05/23 21:28:31;;;;;;;;;;;;;;;;;;5017519;28;19921;-87
2023/05/23 21:30:57;;;;;;;;;;;;;;;;;;5017832;28;20008;-86
2023/05/23 21:33:22;;;;;;;;;;;;;;;;;;5017573;28;19914;-86
2023/05/23 21:35:47;;;;;;;;;;;;;;;;;;5017745;28;20331;-86
2023/05/23 21:38:13;;;;;;;;;;;;;;;;;;5017482;28;19967;-86
2023/05/23 21:40:38;;;;;;;;;;;;;;;;;;5017716;28;19920;-86
2023/05/23 21:43:03;;;;;;;;;;;;;;;;;;5017134;28;19913;-86
2023/05/23 21:45:29;;;;;;;;;;;;;;;;;;5017367;28;19917;-86
2023/05/23 21:47:54;;;;;;;;;;;;;;;;;;5017091;28;19920;-85
2023/05/23 21:50:19;;;;;;;;;;;;;;;;;;5017234;28;19914;-85
2023/05/23 21:52:45;;;;;;;;;;;;;;;;;;5017225;28;19913;-85
2023/05/23 21:55:10;;;;;;;;;;;;;;;;;;5017279;28;20386;-85
2023/05/23 21:57:35;;;;;;;;;;;;;;;;;;4999252;28;19917;-85
